sensor_id;sensor_type;location;lat;lon;timestamp;pressure;altitude;pressure_sealevel;temperature;humidity
73516;BME280;61763;51.416;5.442;2023-07-16T00:00:10;100871.53;;;14.64;100.00
73516;BME280;61763;51.416;5.442;2023-07-16T00:05:02;100875.22;;;14.63;100.00
73516;BME280;61763;51.416;5.442;2023-07-16T00:07:28;100877.44;;;14.57;100.00
73516;BME280;61763;51.416;5.442;2023-07-16T00:09:53;100870.25;;;14.70;100.00
73516;BME280;61763;51.416;5.442;2023-07-16T00:12:19;100875.50;;;14.59;100.00
73516;BME280;61763;51.416;5.442;2023-07-16T00:14:44;100875.69;;;14.55;100.00
73516;BME280;61763;51.416;5.442;2023-07-16T00:17:09;100876.31;;;14.46;100.00
73516;BME280;61763;51.416;5.442;2023-07-16T00:19:35;100874.31;;;14.35;100.00
73516;BME280;61763;51.416;5.442;2023-07-16T00:22:00;100875.69;;;14.28;100.00
73516;BME280;61763;51.416;5.442;2023-07-16T00:24:25;100875.69;;;14.28;100.00
73516;BME280;61763;51.416;5.442;2023-07-16T00:26:52;100873.19;;;14.25;100.00
73516;BME280;61763;51.416;5.442;2023-07-16T00:29:18;100879.00;;;14.19;100.00
73516;BME280;61763;51.416;5.442;2023-07-16T00:31:43;100878.44;;;14.14;100.00
73516;BME280;61763;51.416;5.442;2023-07-16T00:34:08;100882.22;;;14.11;100.00
73516;BME280;61763;51.416;5.442;2023-07-16T00:36:34;100879.91;;;14.05;100.00
73516;BME280;61763;51.416;5.442;2023-07-16T00:38:59;100879.41;;;14.13;100.00
73516;BME280;61763;51.416;5.442;2023-07-16T00:41:24;100884.81;;;14.27;100.00
73516;BME280;61763;51.416;5.442;2023-07-16T00:43:50;100884.88;;;14.40;100.00
73516;BME280;61763;51.416;5.442;2023-07-16T00:46:15;100887.94;;;14.48;100.00
73516;BME280;61763;51.416;5.442;2023-07-16T00:48:41;100872.22;;;14.53;100.00
73516;BME280;61763;51.416;5.442;2023-07-16T00:51:08;100876.75;;;14.53;100.00
73516;BME280;61763;51.416;5.442;2023-07-16T00:53:34;100872.13;;;14.55;100.00
73516;BME280;61763;51.416;5.442;2023-07-16T00:56:00;100883.63;;;14.59;100.00
73516;BME280;61763;51.416;5.442;2023-07-16T00:58:26;100880.53;;;14.65;100.00
73516;BME280;61763;51.416;5.442;2023-07-16T01:00:51;100874.41;;;14.76;100.00
73516;BME280;61763;51.416;5.442;2023-07-16T01:03:18;100871.16;;;14.83;100.00
73516;BME280;61763;51.416;5.442;2023-07-16T01:05:57;100870.41;;;14.81;100.00
73516;BME280;61763;51.416;5.442;2023-07-16T01:11:00;100872.69;;;14.87;100.00
73516;BME280;61763;51.416;5.442;2023-07-16T01:13:26;100880.00;;;14.87;100.00
73516;BME280;61763;51.416;5.442;2023-07-16T01:15:53;100881.97;;;14.98;100.00
73516;BME280;61763;51.416;5.442;2023-07-16T01:18:19;100867.91;;;14.91;100.00
73516;BME280;61763;51.416;5.442;2023-07-16T01:20:44;100873.34;;;14.91;100.00
73516;BME280;61763;51.416;5.442;2023-07-16T01:31:50;100868.09;;;14.75;100.00
73516;BME280;61763;51.416;5.442;2023-07-16T01:34:16;100865.78;;;14.69;100.00
73516;BME280;61763;51.416;5.442;2023-07-16T01:36:43;100877.13;;;14.76;100.00
73516;BME280;61763;51.416;5.442;2023-07-16T01:39:09;100870.34;;;14.68;100.00
73516;BME280;61763;51.416;5.442;2023-07-16T01:41:35;100873.94;;;14.69;100.00
73516;BME280;61763;51.416;5.442;2023-07-16T01:44:00;100872.75;;;14.73;100.00
73516;BME280;61763;51.416;5.442;2023-07-16T01:46:25;100875.59;;;14.71;100.00
73516;BME280;61763;51.416;5.442;2023-07-16T01:48:51;100874.94;;;14.68;100.00
73516;BME280;61763;51.416;5.442;2023-07-16T01:51:16;100890.34;;;14.67;100.00
73516;BME280;61763;51.416;5.442;2023-07-16T01:53:42;100887.06;;;14.62;100.00
73516;BME280;61763;51.416;5.442;2023-07-16T01:56:08;100878.94;;;14.62;100.00
73516;BME280;61763;51.416;5.442;2023-07-16T01:58:33;100872.78;;;14.59;100.00
73516;BME280;61763;51.416;5.442;2023-07-16T02:00:59;100875.31;;;14.62;100.00
73516;BME280;61763;51.416;5.442;2023-07-16T02:03:25;100884.44;;;14.61;100.00
73516;BME280;61763;51.416;5.442;2023-07-16T02:05:50;100877.34;;;14.58;100.00
73516;BME280;61763;51.416;5.442;2023-07-16T02:08:16;100878.53;;;14.54;100.00
73516;BME280;61763;51.416;5.442;2023-07-16T02:10:43;100887.06;;;14.62;100.00
73516;BME280;61763;51.416;5.442;2023-07-16T02:13:08;100889.84;;;14.61;100.00
73516;BME280;61763;51.416;5.442;2023-07-16T02:15:33;100887.72;;;14.66;100.00
73516;BME280;61763;51.416;5.442;2023-07-16T02:18:00;100889.84;;;14.61;100.00
73516;BME280;61763;51.416;5.442;2023-07-16T02:20:26;100888.09;;;14.60;100.00
73516;BME280;61763;51.416;5.442;2023-07-16T02:22:52;100886.78;;;14.52;100.00
73516;BME280;61763;51.416;5.442;2023-07-16T02:25:17;100885.03;;;14.51;100.00
73516;BME280;61763;51.416;5.442;2023-07-16T02:27:43;100897.72;;;14.51;100.00
73516;BME280;61763;51.416;5.442;2023-07-16T02:30:08;100894.91;;;14.52;100.00
73516;BME280;61763;51.416;5.442;2023-07-16T02:32:34;100899.00;;;14.45;100.00
73516;BME280;61763;51.416;5.442;2023-07-16T02:35:00;100900.06;;;14.43;100.00
73516;BME280;61763;51.416;5.442;2023-07-16T02:37:25;100908.16;;;14.44;100.00
73516;BME280;61763;51.416;5.442;2023-07-16T02:39:51;100898.34;;;14.42;100.00
73516;BME280;61763;51.416;5.442;2023-07-16T02:42:16;100897.34;;;14.43;100.00
73516;BME280;61763;51.416;5.442;2023-07-16T02:44:42;100897.47;;;14.41;100.00
73516;BME280;61763;51.416;5.442;2023-07-16T02:47:10;100907.25;;;14.44;100.00
73516;BME280;61763;51.416;5.442;2023-07-16T02:49:36;100908.72;;;14.35;100.00
73516;BME280;61763;51.416;5.442;2023-07-16T02:52:02;100916.50;;;14.27;100.00
73516;BME280;61763;51.416;5.442;2023-07-16T02:54:27;100919.44;;;14.24;100.00
73516;BME280;61763;51.416;5.442;2023-07-16T02:56:53;100910.19;;;14.26;100.00
73516;BME280;61763;51.416;5.442;2023-07-16T02:59:18;100913.91;;;14.25;100.00
73516;BME280;61763;51.416;5.442;2023-07-16T03:01:44;100913.22;;;14.22;100.00
73516;BME280;61763;51.416;5.442;2023-07-16T03:04:09;100922.22;;;14.22;100.00
73516;BME280;61763;51.416;5.442;2023-07-16T03:06:34;100926.03;;;14.19;100.00
73516;BME280;61763;51.416;5.442;2023-07-16T03:09:00;100925.22;;;14.17;100.00
73516;BME280;61763;51.416;5.442;2023-07-16T03:11:25;100913.41;;;14.18;100.00
73516;BME280;61763;51.416;5.442;2023-07-16T03:13:50;100910.81;;;14.02;100.00
73516;BME280;61763;51.416;5.442;2023-07-16T03:16:16;100907.44;;;13.99;100.00
73516;BME280;61763;51.416;5.442;2023-07-16T03:18:41;100899.38;;;13.83;100.00
73516;BME280;61763;51.416;5.442;2023-07-16T03:21:07;100920.50;;;13.78;100.00
73516;BME280;61763;51.416;5.442;2023-07-16T03:23:32;100911.69;;;13.74;100.00
73516;BME280;61763;51.416;5.442;2023-07-16T03:25:57;100919.91;;;13.73;100.00
73516;BME280;61763;51.416;5.442;2023-07-16T03:28:23;100911.09;;;13.69;100.00
73516;BME280;61763;51.416;5.442;2023-07-16T03:30:49;100909.75;;;13.62;100.00
73516;BME280;61763;51.416;5.442;2023-07-16T03:33:15;100903.16;;;13.52;100.00
73516;BME280;61763;51.416;5.442;2023-07-16T03:35:45;100913.19;;;13.49;100.00
73516;BME280;61763;51.416;5.442;2023-07-16T03:38:11;100905.16;;;13.48;100.00
73516;BME280;61763;51.416;5.442;2023-07-16T03:40:36;100910.78;;;13.45;100.00
73516;BME280;61763;51.416;5.442;2023-07-16T03:43:02;100917.25;;;13.42;100.00
73516;BME280;61763;51.416;5.442;2023-07-16T03:45:28;100913.69;;;13.42;100.00
73516;BME280;61763;51.416;5.442;2023-07-16T03:47:55;100922.88;;;13.39;100.00
73516;BME280;61763;51.416;5.442;2023-07-16T03:50:22;100913.69;;;13.42;100.00
73516;BME280;61763;51.416;5.442;2023-07-16T03:52:47;100911.16;;;13.39;100.00
73516;BME280;61763;51.416;5.442;2023-07-16T03:55:13;100920.34;;;13.36;100.00
73516;BME280;61763;51.416;5.442;2023-07-16T03:57:38;100935.84;;;13.34;100.00
73516;BME280;61763;51.416;5.442;2023-07-16T04:00:04;100938.38;;;13.37;100.00
73516;BME280;61763;51.416;5.442;2023-07-16T04:02:35;100937.31;;;13.40;100.00
73516;BME280;61763;51.416;5.442;2023-07-16T04:05:00;100941.84;;;13.39;100.00
73516;BME280;61763;51.416;5.442;2023-07-16T04:07:26;100936.13;;;13.44;100.00
73516;BME280;61763;51.416;5.442;2023-07-16T04:09:51;100948.63;;;13.46;100.00
73516;BME280;61763;51.416;5.442;2023-07-16T04:12:17;100958.91;;;13.41;100.00
73516;BME280;61763;51.416;5.442;2023-07-16T04:14:42;100951.91;;;13.37;100.00
73516;BME280;61763;51.416;5.442;2023-07-16T04:17:08;100958.19;;;13.38;100.00
73516;BME280;61763;51.416;5.442;2023-07-16T04:19:33;100964.06;;;13.30;100.00
73516;BME280;61763;51.416;5.442;2023-07-16T04:21:59;100966.84;;;13.44;100.00
73516;BME280;61763;51.416;5.442;2023-07-16T04:24:24;100965.38;;;13.39;100.00
73516;BME280;61763;51.416;5.442;2023-07-16T04:26:52;100963.44;;;13.41;100.00
73516;BME280;61763;51.416;5.442;2023-07-16T04:29:17;100975.75;;;13.30;100.00
73516;BME280;61763;51.416;5.442;2023-07-16T04:31:43;100964.06;;;13.30;100.00
73516;BME280;61763;51.416;5.442;2023-07-16T04:34:08;100959.25;;;13.35;100.00
73516;BME280;61763;51.416;5.442;2023-07-16T04:36:33;100976.59;;;13.47;100.00
73516;BME280;61763;51.416;5.442;2023-07-16T04:38:59;100987.25;;;13.36;100.00
73516;BME280;61763;51.416;5.442;2023-07-16T04:41:24;100978.19;;;13.51;100.00
73516;BME280;61763;51.416;5.442;2023-07-16T04:43:51;100980.84;;;13.67;100.00
73516;BME280;61763;51.416;5.442;2023-07-16T04:46:17;100972.31;;;13.73;100.00
73516;BME280;61763;51.416;5.442;2023-07-16T04:48:42;100980.66;;;13.70;100.00
73516;BME280;61763;51.416;5.442;2023-07-16T04:51:08;100975.25;;;13.84;100.00
73516;BME280;61763;51.416;5.442;2023-07-16T04:53:33;100983.28;;;13.86;100.00
73516;BME280;61763;51.416;5.442;2023-07-16T04:55:58;100985.63;;;13.92;100.00
73516;BME280;61763;51.416;5.442;2023-07-16T04:58:24;100983.09;;;14.04;100.00
73516;BME280;61763;51.416;5.442;2023-07-16T05:00:49;100989.78;;;13.98;100.00
73516;BME280;61763;51.416;5.442;2023-07-16T05:03:15;100985.31;;;13.97;100.00
73516;BME280;61763;51.416;5.442;2023-07-16T05:05:40;100986.78;;;14.02;100.00
73516;BME280;61763;51.416;5.442;2023-07-16T05:08:05;100985.72;;;14.19;100.00
73516;BME280;61763;51.416;5.442;2023-07-16T05:10:31;100990.00;;;14.24;100.00
73516;BME280;61763;51.416;5.442;2023-07-16T05:12:56;100991.81;;;14.23;100.00
73516;BME280;61763;51.416;5.442;2023-07-16T05:15:22;100992.22;;;14.31;100.00
73516;BME280;61763;51.416;5.442;2023-07-16T05:17:47;100991.63;;;14.41;100.00
73516;BME280;61763;51.416;5.442;2023-07-16T05:20:13;100995.91;;;14.45;100.00
73516;BME280;61763;51.416;5.442;2023-07-16T05:22:38;100994.94;;;14.46;100.00
73516;BME280;61763;51.416;5.442;2023-07-16T05:25:04;100999.16;;;14.50;100.00
73516;BME280;61763;51.416;5.442;2023-07-16T05:27:29;100995.41;;;14.52;100.00
73516;BME280;61763;51.416;5.442;2023-07-16T05:29:55;100997.91;;;14.70;100.00
73516;BME280;61763;51.416;5.442;2023-07-16T05:32:21;100991.63;;;14.69;100.00
73516;BME280;61763;51.416;5.442;2023-07-16T05:34:48;100996.34;;;14.80;100.00
73516;BME280;61763;51.416;5.442;2023-07-16T05:37:13;101001.13;;;14.77;100.00
73516;BME280;61763;51.416;5.442;2023-07-16T05:39:39;101003.88;;;14.89;100.00
73516;BME280;61763;51.416;5.442;2023-07-16T05:42:05;101003.97;;;14.88;100.00
73516;BME280;61763;51.416;5.442;2023-07-16T05:44:31;100997.16;;;14.95;100.00
73516;BME280;61763;51.416;5.442;2023-07-16T05:46:56;101001.19;;;15.17;100.00
73516;BME280;61763;51.416;5.442;2023-07-16T05:49:22;101010.66;;;15.24;100.00
73516;BME280;61763;51.416;5.442;2023-07-16T05:51:48;101009.69;;;15.25;100.00
73516;BME280;61763;51.416;5.442;2023-07-16T05:54:15;101014.91;;;15.28;100.00
73516;BME280;61763;51.416;5.442;2023-07-16T05:56:41;101026.50;;;15.45;100.00
73516;BME280;61763;51.416;5.442;2023-07-16T05:59:07;101008.13;;;15.48;100.00
73516;BME280;61763;51.416;5.442;2023-07-16T06:01:32;101021.88;;;15.59;100.00
73516;BME280;61763;51.416;5.442;2023-07-16T06:03:58;101019.03;;;15.61;100.00
73516;BME280;61763;51.416;5.442;2023-07-16T06:06:23;101025.16;;;15.77;100.00
73516;BME280;61763;51.416;5.442;2023-07-16T06:08:48;101026.72;;;15.82;100.00
73516;BME280;61763;51.416;5.442;2023-07-16T06:11:14;101022.25;;;15.81;100.00
73516;BME280;61763;51.416;5.442;2023-07-16T06:13:40;101028.78;;;15.78;100.00
73516;BME280;61763;51.416;5.442;2023-07-16T06:16:07;101040.53;;;15.91;100.00
73516;BME280;61763;51.416;5.442;2023-07-16T06:18:33;101052.00;;;15.97;100.00
73516;BME280;61763;51.416;5.442;2023-07-16T06:20:58;101039.38;;;16.08;100.00
73516;BME280;61763;51.416;5.442;2023-07-16T06:23:23;101034.91;;;16.20;100.00
73516;BME280;61763;51.416;5.442;2023-07-16T06:25:54;101038.72;;;16.31;100.00
73516;BME280;61763;51.416;5.442;2023-07-16T06:28:19;101045.69;;;16.35;100.00
73516;BME280;61763;51.416;5.442;2023-07-16T06:30:45;101052.56;;;16.40;100.00
73516;BME280;61763;51.416;5.442;2023-07-16T06:33:10;101049.06;;;16.38;100.00
73516;BME280;61763;51.416;5.442;2023-07-16T06:35:36;101054.94;;;16.32;100.00
73516;BME280;61763;51.416;5.442;2023-07-16T06:38:01;101055.16;;;16.42;100.00
73516;BME280;61763;51.416;5.442;2023-07-16T06:40:28;101047.84;;;16.42;100.00
73516;BME280;61763;51.416;5.442;2023-07-16T06:42:53;101059.84;;;16.53;100.00
73516;BME280;61763;51.416;5.442;2023-07-16T06:45:19;101066.69;;;16.58;100.00
73516;BME280;61763;51.416;5.442;2023-07-16T06:47:45;101056.31;;;16.63;100.00
73516;BME280;61763;51.416;5.442;2023-07-16T06:50:11;101059.03;;;16.63;100.00
73516;BME280;61763;51.416;5.442;2023-07-16T06:52:37;101064.72;;;16.73;100.00
73516;BME280;61763;51.416;5.442;2023-07-16T06:55:02;101063.50;;;16.77;100.00
73516;BME280;61763;51.416;5.442;2023-07-16T06:57:29;101070.25;;;16.85;100.00
73516;BME280;61763;51.416;5.442;2023-07-16T06:59:54;101056.94;;;16.93;100.00
73516;BME280;61763;51.416;5.442;2023-07-16T07:02:21;101065.88;;;17.08;100.00
73516;BME280;61763;51.416;5.442;2023-07-16T07:04:46;101061.16;;;17.10;100.00
73516;BME280;61763;51.416;5.442;2023-07-16T07:07:12;101062.91;;;17.11;100.00
73516;BME280;61763;51.416;5.442;2023-07-16T07:09:37;101073.88;;;17.22;100.00
73516;BME280;61763;51.416;5.442;2023-07-16T07:12:04;101074.94;;;17.32;100.00
73516;BME280;61763;51.416;5.442;2023-07-16T07:14:29;101079.81;;;17.40;100.00
73516;BME280;61763;51.416;5.442;2023-07-16T07:16:55;101080.22;;;17.47;100.00
73516;BME280;61763;51.416;5.442;2023-07-16T07:19:20;101072.88;;;17.47;100.00
73516;BME280;61763;51.416;5.442;2023-07-16T07:21:49;101065.59;;;17.48;100.00
73516;BME280;61763;51.416;5.442;2023-07-16T07:24:17;101069.31;;;17.47;100.00
73516;BME280;61763;51.416;5.442;2023-07-16T07:26:43;101075.09;;;17.66;100.00
73516;BME280;61763;51.416;5.442;2023-07-16T07:29:08;101070.53;;;17.78;100.00
73516;BME280;61763;51.416;5.442;2023-07-16T07:31:33;101080.81;;;17.99;100.00
73516;BME280;61763;51.416;5.442;2023-07-16T07:33:59;101081.88;;;18.20;100.00
73516;BME280;61763;51.416;5.442;2023-07-16T07:36:24;101076.03;;;18.25;100.00
73516;BME280;61763;51.416;5.442;2023-07-16T07:38:50;101090.09;;;18.32;100.00
73516;BME280;61763;51.416;5.442;2023-07-16T07:41:16;101086.69;;;18.06;100.00
73516;BME280;61763;51.416;5.442;2023-07-16T07:43:41;101094.53;;;18.33;100.00
73516;BME280;61763;51.416;5.442;2023-07-16T07:46:06;101101.28;;;18.51;100.00
73516;BME280;61763;51.416;5.442;2023-07-16T07:48:33;101103.09;;;18.86;100.00
73516;BME280;61763;51.416;5.442;2023-07-16T07:50:58;101094.13;;;19.07;100.00
73516;BME280;61763;51.416;5.442;2023-07-16T07:53:24;101100.19;;;19.11;100.00
73516;BME280;61763;51.416;5.442;2023-07-16T07:55:50;101109.91;;;18.92;100.00
73516;BME280;61763;51.416;5.442;2023-07-16T07:58:15;101106.56;;;19.00;100.00
73516;BME280;61763;51.416;5.442;2023-07-16T08:00:40;101103.09;;;18.98;100.00
73516;BME280;61763;51.416;5.442;2023-07-16T08:03:06;101100.44;;;19.07;100.00
73516;BME280;61763;51.416;5.442;2023-07-16T08:05:32;101112.75;;;19.24;100.00
73516;BME280;61763;51.416;5.442;2023-07-16T08:07:59;101094.44;;;19.25;100.00
73516;BME280;61763;51.416;5.442;2023-07-16T08:10:24;101100.47;;;19.51;100.00
73516;BME280;61763;51.416;5.442;2023-07-16T08:12:50;101098.69;;;19.61;100.00
73516;BME280;61763;51.416;5.442;2023-07-16T08:15:15;101107.84;;;19.51;100.00
73516;BME280;61763;51.416;5.442;2023-07-16T08:17:42;101112.13;;;19.65;100.00
73516;BME280;61763;51.416;5.442;2023-07-16T08:20:09;101103.38;;;19.71;100.00
73516;BME280;61763;51.416;5.442;2023-07-16T08:22:35;101101.25;;;19.86;100.00
73516;BME280;61763;51.416;5.442;2023-07-16T08:25:00;101113.44;;;20.14;100.00
73516;BME280;61763;51.416;5.442;2023-07-16T08:27:26;101094.53;;;20.32;100.00
73516;BME280;61763;51.416;5.442;2023-07-16T08:29:51;101109.94;;;20.12;100.00
73516;BME280;61763;51.416;5.442;2023-07-16T08:32:18;101111.75;;;20.02;100.00
73516;BME280;61763;51.416;5.442;2023-07-16T08:34:43;101109.09;;;20.11;100.00
73516;BME280;61763;51.416;5.442;2023-07-16T08:37:09;101111.28;;;20.18;100.00
73516;BME280;61763;51.416;5.442;2023-07-16T08:39:34;101104.66;;;20.41;100.00
73516;BME280;61763;51.416;5.442;2023-07-16T08:42:00;101103.75;;;20.83;100.00
73516;BME280;61763;51.416;5.442;2023-07-16T08:44:26;101120.81;;;20.87;100.00
73516;BME280;61763;51.416;5.442;2023-07-16T08:46:52;101095.00;;;20.89;100.00
73516;BME280;61763;51.416;5.442;2023-07-16T08:49:18;101105.72;;;20.71;100.00
73516;BME280;61763;51.416;5.442;2023-07-16T08:51:45;101113.66;;;21.05;100.00
73516;BME280;61763;51.416;5.442;2023-07-16T08:54:12;101113.50;;;21.07;100.00
73516;BME280;61763;51.416;5.442;2023-07-16T08:56:41;101110.81;;;21.16;100.00
73516;BME280;61763;51.416;5.442;2023-07-16T08:59:06;101126.44;;;20.85;100.00
73516;BME280;61763;51.416;5.442;2023-07-16T09:01:32;101128.63;;;20.91;100.00
73516;BME280;61763;51.416;5.442;2023-07-16T09:03:58;101119.69;;;20.99;100.00
73516;BME280;61763;51.416;5.442;2023-07-16T09:06:23;101125.88;;;20.91;100.00
73516;BME280;61763;51.416;5.442;2023-07-16T09:08:50;101115.09;;;21.09;100.00
73516;BME280;61763;51.416;5.442;2023-07-16T09:11:15;101125.69;;;21.24;100.00
73516;BME280;61763;51.416;5.442;2023-07-16T09:13:46;101124.22;;;21.50;100.00
73516;BME280;61763;51.416;5.442;2023-07-16T09:16:11;101136.44;;;21.46;100.00
73516;BME280;61763;51.416;5.442;2023-07-16T09:18:39;101133.47;;;21.59;100.00
73516;BME280;61763;51.416;5.442;2023-07-16T09:21:06;101128.13;;;21.77;100.00
73516;BME280;61763;51.416;5.442;2023-07-16T09:23:32;101122.06;;;21.74;100.00
73516;BME280;61763;51.416;5.442;2023-07-16T09:25:58;101126.84;;;22.11;99.16
73516;BME280;61763;51.416;5.442;2023-07-16T09:28:24;101132.03;;;22.23;95.92
73516;BME280;61763;51.416;5.442;2023-07-16T09:30:52;101119.75;;;22.18;100.00
73516;BME280;61763;51.416;5.442;2023-07-16T09:33:20;101127.97;;;22.95;92.87
73516;BME280;61763;51.416;5.442;2023-07-16T09:35:48;101133.72;;;22.54;91.76
73516;BME280;61763;51.416;5.442;2023-07-16T09:38:13;101158.22;;;22.57;94.32
73516;BME280;61763;51.416;5.442;2023-07-16T09:40:40;101141.41;;;22.60;88.81
73516;BME280;61763;51.416;5.442;2023-07-16T09:43:09;101133.94;;;22.43;84.54
73516;BME280;61763;51.416;5.442;2023-07-16T09:45:35;101149.69;;;22.50;88.00
73516;BME280;61763;51.416;5.442;2023-07-16T09:48:00;101153.28;;;22.31;93.51
73516;BME280;61763;51.416;5.442;2023-07-16T09:50:28;101149.72;;;22.88;87.36
73516;BME280;61763;51.416;5.442;2023-07-16T09:52:56;101155.03;;;22.62;83.28
73516;BME280;61763;51.416;5.442;2023-07-16T09:55:22;101157.41;;;22.84;92.17
73516;BME280;61763;51.416;5.442;2023-07-16T09:57:49;101157.47;;;22.55;85.26
73516;BME280;61763;51.416;5.442;2023-07-16T10:00:16;101155.88;;;22.52;84.85
73516;BME280;61763;51.416;5.442;2023-07-16T10:02:44;101153.50;;;22.77;87.00
73516;BME280;61763;51.416;5.442;2023-07-16T10:05:16;101168.88;;;22.70;84.31
73516;BME280;61763;51.416;5.442;2023-07-16T10:07:43;101169.69;;;22.33;84.24
73516;BME280;61763;51.416;5.442;2023-07-16T10:10:10;101168.78;;;21.93;87.77
73516;BME280;61763;51.416;5.442;2023-07-16T10:12:37;101171.81;;;21.90;89.88
73516;BME280;61763;51.416;5.442;2023-07-16T10:15:04;101176.31;;;21.91;90.56
73516;BME280;61763;51.416;5.442;2023-07-16T10:17:30;101177.03;;;21.83;89.43
73516;BME280;61763;51.416;5.442;2023-07-16T10:20:05;101186.41;;;21.91;93.32
73516;BME280;61763;51.416;5.442;2023-07-16T10:22:43;101190.88;;;21.82;94.17
73516;BME280;61763;51.416;5.442;2023-07-16T10:27:44;101198.41;;;21.29;98.66
73516;BME280;61763;51.416;5.442;2023-07-16T10:30:10;101196.38;;;21.31;96.53
73516;BME280;61763;51.416;5.442;2023-07-16T10:32:35;101197.94;;;21.65;94.60
73516;BME280;61763;51.416;5.442;2023-07-16T10:35:02;101199.75;;;22.15;91.91
73516;BME280;61763;51.416;5.442;2023-07-16T10:37:29;101196.41;;;22.21;85.91
73516;BME280;61763;51.416;5.442;2023-07-16T10:39:58;101199.31;;;22.10;86.48
73516;BME280;61763;51.416;5.442;2023-07-16T10:42:26;101205.09;;;21.97;90.85
73516;BME280;61763;51.416;5.442;2023-07-16T10:44:53;101204.22;;;21.86;90.13
73516;BME280;61763;51.416;5.442;2023-07-16T10:47:35;101207.41;;;22.21;96.67
73516;BME280;61763;51.416;5.442;2023-07-16T10:50:06;101211.19;;;22.30;89.75
73516;BME280;61763;51.416;5.442;2023-07-16T10:52:34;101212.63;;;22.04;91.98
73516;BME280;61763;51.416;5.442;2023-07-16T10:54:59;101213.78;;;22.12;91.48
73516;BME280;61763;51.416;5.442;2023-07-16T10:57:25;101222.56;;;21.86;92.23
73516;BME280;61763;51.416;5.442;2023-07-16T10:59:52;101220.38;;;21.80;92.24
73516;BME280;61763;51.416;5.442;2023-07-16T11:02:18;101230.22;;;21.82;95.24
73516;BME280;61763;51.416;5.442;2023-07-16T11:04:45;101213.56;;;21.64;95.36
73516;BME280;61763;51.416;5.442;2023-07-16T11:07:12;101234.78;;;21.62;98.01
73516;BME280;61763;51.416;5.442;2023-07-16T11:09:51;101231.28;;;21.50;95.98
73516;BME280;61763;51.416;5.442;2023-07-16T11:12:20;101230.44;;;21.60;97.46
73516;BME280;61763;51.416;5.442;2023-07-16T11:14:53;101229.00;;;21.25;100.00
73516;BME280;61763;51.416;5.442;2023-07-16T11:17:20;101238.69;;;21.29;100.00
73516;BME280;61763;51.416;5.442;2023-07-16T11:19:48;101236.97;;;21.28;100.00
73516;BME280;61763;51.416;5.442;2023-07-16T11:22:14;101235.56;;;21.12;100.00
73516;BME280;61763;51.416;5.442;2023-07-16T11:24:47;101244.56;;;20.93;100.00
73516;BME280;61763;51.416;5.442;2023-07-16T11:27:26;101251.25;;;21.22;100.00
73516;BME280;61763;51.416;5.442;2023-07-16T11:29:53;101234.84;;;21.41;100.00
73516;BME280;61763;51.416;5.442;2023-07-16T11:32:41;101245.78;;;21.62;100.00
73516;BME280;61763;51.416;5.442;2023-07-16T11:35:08;101239.94;;;21.86;96.79
73516;BME280;61763;51.416;5.442;2023-07-16T11:37:35;101249.91;;;21.97;95.66
73516;BME280;61763;51.416;5.442;2023-07-16T11:40:02;101246.75;;;22.21;94.06
73516;BME280;61763;51.416;5.442;2023-07-16T11:42:36;101245.06;;;22.40;93.61
73516;BME280;61763;51.416;5.442;2023-07-16T11:45:03;101256.66;;;22.63;91.55
73516;BME280;61763;51.416;5.442;2023-07-16T11:47:30;101244.91;;;22.61;88.93
73516;BME280;61763;51.416;5.442;2023-07-16T11:49:56;101247.66;;;22.61;89.05
73516;BME280;61763;51.416;5.442;2023-07-16T11:52:24;101251.44;;;22.50;90.07
73516;BME280;61763;51.416;5.442;2023-07-16T11:54:51;101248.84;;;22.59;87.21
73516;BME280;61763;51.416;5.442;2023-07-16T11:57:17;101251.41;;;22.21;91.06
73516;BME280;61763;51.416;5.442;2023-07-16T11:59:42;101261.63;;;21.99;91.50
73516;BME280;61763;51.416;5.442;2023-07-16T12:02:08;101253.97;;;22.13;91.10
73516;BME280;61763;51.416;5.442;2023-07-16T12:04:34;101266.34;;;22.38;91.20
73516;BME280;61763;51.416;5.442;2023-07-16T12:06:59;101260.53;;;22.61;87.81
73516;BME280;61763;51.416;5.442;2023-07-16T12:09:24;101250.00;;;22.56;87.03
73516;BME280;61763;51.416;5.442;2023-07-16T12:11:50;101258.50;;;22.72;88.11
73516;BME280;61763;51.416;5.442;2023-07-16T12:14:15;101253.66;;;23.23;89.41
73516;BME280;61763;51.416;5.442;2023-07-16T12:16:40;101254.34;;;23.35;87.12
73516;BME280;61763;51.416;5.442;2023-07-16T12:19:08;101265.53;;;23.24;84.50
73516;BME280;61763;51.416;5.442;2023-07-16T12:21:34;101248.91;;;22.96;84.52
73516;BME280;61763;51.416;5.442;2023-07-16T12:23:59;101265.31;;;22.29;87.51
73516;BME280;61763;51.416;5.442;2023-07-16T12:26:25;101270.75;;;22.10;88.59
73516;BME280;61763;51.416;5.442;2023-07-16T12:28:50;101264.94;;;21.83;94.64
73516;BME280;61763;51.416;5.442;2023-07-16T12:31:16;101275.94;;;21.83;94.34
73516;BME280;61763;51.416;5.442;2023-07-16T12:33:46;101275.44;;;21.68;97.38
73516;BME280;61763;51.416;5.442;2023-07-16T12:36:12;101279.41;;;21.85;95.23
73516;BME280;61763;51.416;5.442;2023-07-16T12:38:38;101271.44;;;21.82;96.18
73516;BME280;61763;51.416;5.442;2023-07-16T12:41:03;101277.69;;;21.94;100.00
73516;BME280;61763;51.416;5.442;2023-07-16T12:43:29;101287.16;;;21.70;100.00
73516;BME280;61763;51.416;5.442;2023-07-16T12:45:54;101285.84;;;22.25;100.00
73516;BME280;61763;51.416;5.442;2023-07-16T12:48:19;101275.00;;;22.63;100.00
73516;BME280;61763;51.416;5.442;2023-07-16T12:50:45;101281.41;;;22.53;100.00
73516;BME280;61763;51.416;5.442;2023-07-16T12:53:10;101281.31;;;23.02;100.00